Time;durP1;ratioP1;P1;durP2;ratioP2;P2;SDS_P1;SDS_P2;PMS_P1;PMS_P2;Temp;Humidity;BMP_temperature;BMP_pressure;BME280_temperature;BME280_humidity;BME280_pressure;Samples;Min_cycle;Max_cycle;Signal;HPM_P1;HPM_P2
2023/11/18 00:03:52;;;;;;;22.97;16.60;;;;;5.30;101823.00;;;;10290174;28;20686;-75
2023/11/18 00:08:54;;;;;;;35.10;18.77;;;;;5.30;101822.00;;;;10300356;28;20236;-75
2023/11/18 00:13:55;;;;;;;28.23;18.67;;;;;5.30;101818.00;;;;10318371;28;20215;-79
2023/11/18 00:18:56;;;;;;;25.37;17.00;;;;;5.40;101813.00;;;;10301042;28;20963;-78
2023/11/18 00:23:57;;;;;;;33.67;19.13;;;;;5.40;101810.00;;;;10313323;28;20670;-79
2023/11/18 00:29:00;;;;;;;33.00;18.27;;;;;5.40;101799.00;;;;10311617;28;20347;-78
2023/11/18 00:34:02;;;;;;;29.73;20.10;;;;;5.40;101795.00;;;;10308295;28;20228;-78
2023/11/18 00:39:04;;;;;;;31.73;19.23;;;;;5.30;101796.00;;;;10321156;28;20246;-79
2023/11/18 00:44:07;;;;;;;39.23;20.80;;;;;5.30;101791.00;;;;10317430;28;20220;-79
2023/11/18 00:49:08;;;;;;;32.33;19.20;;;;;5.30;101788.00;;;;10313026;28;20571;-80
2023/11/18 00:54:11;;;;;;;31.00;18.87;;;;;5.20;101789.00;;;;10295217;28;20582;-79
2023/11/18 00:59:12;;;;;;;36.13;18.73;;;;;5.30;101788.00;;;;10312689;28;20224;-81
2023/11/18 01:04:13;;;;;;;35.10;18.60;;;;;5.30;101789.00;;;;10306125;28;20219;-80
2023/11/18 01:09:16;;;;;;;32.00;17.90;;;;;5.30;101793.00;;;;10314677;28;21239;-80
2023/11/18 01:14:17;;;;;;;31.50;19.10;;;;;5.30;101802.00;;;;10296721;28;20318;-77
2023/11/18 01:19:18;;;;;;;37.23;17.50;;;;;5.30;101809.00;;;;10319205;28;20228;-78
2023/11/18 01:24:21;;;;;;;31.23;18.93;;;;;5.30;101819.00;;;;10317143;28;20236;-71
2023/11/18 01:29:22;;;;;;;32.63;17.87;;;;;5.30;101816.00;;;;10308224;28;20249;-71
2023/11/18 01:34:24;;;;;;;30.40;17.43;;;;;5.20;101810.00;;;;10317406;28;20227;-72
2023/11/18 01:39:26;;;;;;;33.70;18.27;;;;;5.20;101809.00;;;;10319978;28;20215;-72
2023/11/18 01:44:30;;;;;;;28.77;17.97;;;;;5.20;101798.00;;;;10315290;28;20772;-72
2023/11/18 01:49:37;;;;;;;28.97;17.70;;;;;5.20;101788.00;;;;10323601;28;20228;-72
2023/11/18 01:54:38;;;;;;;22.37;16.13;;;;;5.20;101801.00;;;;10321347;28;20239;-71
2023/11/18 01:59:40;;;;;;;26.63;16.13;;;;;5.20;101810.00;;;;10310598;28;20220;-71
2023/11/18 02:04:41;;;;;;;25.83;16.97;;;;;5.20;101794.00;;;;10315691;28;20322;-71
2023/11/18 02:09:45;;;;;;;30.97;16.63;;;;;5.20;101798.00;;;;10319440;28;20267;-71
2023/11/18 02:14:49;;;;;;;24.47;14.50;;;;;5.20;101798.00;;;;10326339;28;20234;-71
2023/11/18 02:19:53;;;;;;;24.50;15.90;;;;;5.10;101790.00;;;;10314074;28;20227;-71
2023/11/18 02:24:55;;;;;;;22.07;13.87;;;;;5.10;101788.00;;;;10307457;28;20242;-72
2023/11/18 02:29:56;;;;;;;17.83;11.93;;;;;5.10;101795.00;;;;10323881;28;20281;-72
2023/11/18 02:35:17;;;;;;;21.20;10.03;;;;;5.20;101779.00;;;;10329953;28;20247;-73
2023/11/18 02:40:30;;;;;;;20.23;10.10;;;;;5.30;101778.00;;;;10332298;28;20322;-73
2023/11/18 02:45:31;;;;;;;20.03;10.87;;;;;5.40;101775.00;;;;10323273;28;20287;-73
2023/11/18 02:50:35;;;;;;;18.60;11.93;;;;;5.30;101760.00;;;;10333811;28;20256;-73
2023/11/18 02:55:36;;;;;;;21.77;12.43;;;;;5.30;101730.00;;;;10330070;28;20222;-73
2023/11/18 03:00:38;;;;;;;19.00;11.80;;;;;5.20;101720.00;;;;10321424;28;20227;-73
2023/11/18 03:05:39;;;;;;;20.63;10.13;;;;;5.20;101725.00;;;;10339605;28;20223;-73
2023/11/18 03:10:44;;;;;;;17.03;8.20;;;;;5.20;101707.00;;;;10327184;28;20223;-73
2023/11/18 03:15:48;;;;;;;16.87;7.77;;;;;5.10;101700.00;;;;10312574;28;20225;-73
2023/11/18 03:20:49;;;;;;;15.23;8.43;;;;;5.10;101719.00;;;;10316696;28;20310;-74
2023/11/18 03:25:51;;;;;;;14.33;7.07;;;;;5.10;101711.00;;;;10319280;28;20239;-73
2023/11/18 03:30:53;;;;;;;16.93;7.37;;;;;5.20;101704.00;;;;10322401;28;20362;-74
2023/11/18 03:35:55;;;;;;;15.07;6.00;;;;;5.30;101707.00;;;;10329311;28;20923;-73
2023/11/18 03:40:58;;;;;;;14.90;4.97;;;;;5.40;101696.00;;;;10319019;28;20224;-74
2023/11/18 03:45:59;;;;;;;15.83;5.57;;;;;5.60;101689.00;;;;10316339;28;20224;-73
2023/11/18 03:51:03;;;;;;;25.83;5.77;;;;;5.70;101700.00;;;;10314284;28;20758;-73
2023/11/18 03:56:04;;;;;;;12.67;6.27;;;;;5.70;101691.00;;;;10312280;28;20253;-73
2023/11/18 04:01:06;;;;;;;13.60;6.03;;;;;5.80;101680.00;;;;10311668;28;20227;-73
2023/11/18 04:06:07;;;;;;;17.03;6.80;;;;;5.80;101677.00;;;;10315880;28;20227;-73
2023/11/18 04:11:09;;;;;;;15.67;5.87;;;;;5.90;101664.00;;;;10336532;28;20250;-73
2023/11/18 04:16:15;;;;;;;11.07;5.30;;;;;6.00;101651.00;;;;10320329;28;20212;-74
2023/11/18 04:21:16;;;;;;;9.97;5.43;;;;;6.00;101649.00;;;;10297376;28;20227;-73
2023/11/18 04:26:17;;;;;;;15.43;6.83;;;;;6.00;101647.00;;;;10317657;28;20247;-73
2023/11/18 04:31:19;;;;;;;16.07;6.23;;;;;6.10;101633.00;;;;10341151;28;20231;-73
2023/11/18 04:36:21;;;;;;;11.47;5.00;;;;;6.10;101635.00;;;;10314589;28;20218;-73
2023/11/18 04:41:23;;;;;;;18.90;5.70;;;;;6.10;101636.00;;;;10318119;28;20625;-73
2023/11/18 04:46:24;;;;;;;12.47;4.97;;;;;6.20;101618.00;;;;10317817;28;20350;-73
2023/11/18 04:51:25;;;;;;;12.30;4.93;;;;;6.20;101617.00;;;;10312243;28;20689;-73
2023/11/18 04:56:27;;;;;;;12.23;5.27;;;;;6.20;101607.00;;;;10307440;28;20342;-72
2023/11/18 05:01:28;;;;;;;15.73;5.27;;;;;6.30;101587.00;;;;10298616;28;20223;-72
2023/11/18 05:06:29;;;;;;;12.13;5.20;;;;;6.30;101582.00;;;;10322221;28;20228;-72
2023/11/18 05:11:30;;;;;;;12.27;5.27;;;;;6.30;101601.00;;;;10301692;28;20315;-72
2023/11/18 05:16:31;;;;;;;14.23;4.77;;;;;6.30;101590.00;;;;10319268;28;20230;-72
2023/11/18 05:21:32;;;;;;;12.33;4.57;;;;;6.40;101587.00;;;;10311742;28;20212;-72
2023/11/18 05:26:34;;;;;;;16.77;4.70;;;;;6.40;101568.00;;;;10311610;28;20306;-72
2023/11/18 05:31:37;;;;;;;13.60;4.97;;;;;6.50;101570.00;;;;10309246;28;20744;-72
2023/11/18 05:36:40;;;;;;;16.27;5.43;;;;;6.60;101550.00;;;;10296027;28;20233;-72
2023/11/18 05:41:45;;;;;;;14.80;4.50;;;;;6.60;101538.00;;;;10319654;28;20228;-72
2023/11/18 05:46:46;;;;;;;12.83;4.10;;;;;6.70;101539.00;;;;10305471;28;20224;-72
2023/11/18 05:51:47;;;;;;;18.97;4.90;;;;;6.70;101536.00;;;;10300377;28;20235;-72
2023/11/18 05:56:49;;;;;;;11.10;3.90;;;;;6.70;101537.00;;;;10311806;28;20329;-72
2023/11/18 06:01:50;;;;;;;12.47;3.57;;;;;6.70;101525.00;;;;10309295;28;20693;-73
2023/11/18 06:06:51;;;;;;;9.50;3.40;;;;;6.80;101533.00;;;;10323918;28;20281;-72
2023/11/18 06:11:53;;;;;;;12.23;3.27;;;;;6.80;101539.00;;;;10327632;28;20223;-72
2023/11/18 06:16:55;;;;;;;15.80;3.57;;;;;6.80;101538.00;;;;10314024;28;20262;-71
2023/11/18 06:21:56;;;;;;;9.47;2.73;;;;;6.80;101536.00;;;;10312699;28;20211;-71
2023/11/18 06:26:59;;;;;;;9.80;2.93;;;;;6.80;101521.00;;;;10307909;28;20242;-71
2023/11/18 06:32:01;;;;;;;12.13;3.37;;;;;6.90;101528.00;;;;10315630;28;20216;-72
2023/11/18 06:37:03;;;;;;;10.50;3.47;;;;;6.90;101508.00;;;;10314337;28;20223;-71
2023/11/18 06:42:11;;;;;;;8.27;3.07;;;;;7.00;101514.00;;;;10309936;28;20278;-71
2023/11/18 06:47:12;;;;;;;12.50;3.10;;;;;7.00;101504.00;;;;10311513;28;20227;-71
2023/11/18 06:52:13;;;;;;;8.37;2.87;;;;;7.00;101519.00;;;;10327857;28;20227;-71
2023/11/18 06:57:14;;;;;;;10.37;2.80;;;;;7.00;101517.00;;;;10311568;28;20311;-71
2023/11/18 07:02:16;;;;;;;9.43;3.07;;;;;7.10;101523.00;;;;10319909;28;20231;-71
2023/11/18 07:07:17;;;;;;;13.13;3.17;;;;;7.10;101516.00;;;;10315263;28;20227;-71
2023/11/18 07:12:22;;;;;;;10.63;3.30;;;;;7.20;101515.00;;;;10293651;28;20251;-72
2023/11/18 07:17:23;;;;;;;8.10;2.70;;;;;7.20;101516.00;;;;10316719;28;20323;-72
2023/11/18 07:22:25;;;;;;;13.43;5.33;;;;;7.20;101499.00;;;;10312413;28;20220;-73
2023/11/18 07:27:26;;;;;;;10.90;3.13;;;;;7.20;101508.00;;;;10316861;28;20221;-73
2023/11/18 07:32:27;;;;;;;13.40;3.47;;;;;7.20;101515.00;;;;10316068;28;20235;-73
2023/11/18 07:37:32;;;;;;;13.97;4.27;;;;;7.20;101516.00;;;;10314733;28;20866;-73
2023/11/18 07:42:36;;;;;;;13.50;5.43;;;;;7.30;101517.00;;;;10315590;28;20216;-73
2023/11/18 07:47:39;;;;;;;15.33;4.80;;;;;7.30;101524.00;;;;10321206;28;20696;-73
2023/11/18 07:52:40;;;;;;;9.63;4.40;;;;;7.30;101516.00;;;;10316290;28;20912;-73
2023/11/18 07:57:42;;;;;;;10.00;3.57;;;;;7.30;101509.00;;;;10298005;28;20220;-72
2023/11/18 08:02:44;;;;;;;15.50;4.33;;;;;7.30;101499.00;;;;10311353;28;20322;-73
2023/11/18 08:07:46;;;;;;;13.30;4.37;;;;;7.30;101488.00;;;;10319836;28;20243;-73
2023/11/18 08:12:47;;;;;;;13.10;4.97;;;;;7.30;101479.00;;;;10315332;28;20216;-73
2023/11/18 08:17:51;;;;;;;13.60;4.73;;;;;7.30;101472.00;;;;10342531;28;20215;-73
2023/11/18 08:22:53;;;;;;;9.57;4.13;;;;;7.40;101473.00;;;;10310028;28;20223;-73
2023/11/18 08:27:54;;;;;;;9.87;3.33;;;;;7.40;101459.00;;;;10321534;28;20316;-72
2023/11/18 08:32:56;;;;;;;12.13;4.20;;;;;7.40;101470.00;;;;10341600;28;20299;-73
2023/11/18 08:37:59;;;;;;;12.87;4.67;;;;;7.50;101469.00;;;;10310664;28;20231;-71
2023/11/18 08:43:01;;;;;;;9.37;3.97;;;;;7.60;101459.00;;;;10311924;28;20306;-73
2023/11/18 08:48:07;;;;;;;10.63;4.70;;;;;7.60;101449.00;;;;10311244;28;20224;-72
2023/11/18 08:53:09;;;;;;;12.73;5.23;;;;;7.60;101439.00;;;;10310328;28;20319;-71
2023/11/18 08:58:33;;;;;;;11.23;5.00;;;;;7.60;101462.00;;;;10319247;28;20230;-72
2023/11/18 09:03:35;;;;;;;10.53;5.53;;;;;7.60;101468.00;;;;10317029;28;20751;-73
2023/11/18 09:08:42;;;;;;;12.87;5.07;;;;;7.70;101448.00;;;;10313338;28;20224;-74
2023/11/18 09:13:47;;;;;;;15.10;5.80;;;;;7.80;101449.00;;;;10312051;28;20781;-73
2023/11/18 09:18:49;;;;;;;10.10;5.40;;;;;7.80;101418.00;;;;10330316;28;20220;-72
2023/11/18 09:23:50;;;;;;;8.17;4.53;;;;;7.90;101391.00;;;;10308526;28;20994;-72
2023/11/18 09:28:52;;;;;;;9.83;4.60;;;;;8.00;101409.00;;;;10319731;28;20231;-72
2023/11/18 09:33:53;;;;;;;14.40;4.70;;;;;8.00;101409.00;;;;10313171;28;20319;-73
2023/11/18 09:38:55;;;;;;;10.23;4.90;;;;;8.00;101392.00;;;;10312508;28;20798;-75
2023/11/18 09:43:56;;;;;;;14.30;5.13;;;;;8.00;101402.00;;;;10322739;28;20306;-75
2023/11/18 09:49:25;;;;;;;13.00;5.13;;;;;8.00;101395.00;;;;10328951;28;20748;-76
2023/11/18 09:54:55;;;;;;;9.93;5.40;;;;;8.10;101364.00;;;;10305741;28;20247;-76
2023/11/18 10:00:21;;;;;;;9.37;5.00;;;;;8.30;101341.00;;;;10330849;28;20299;-77
2023/11/18 10:05:26;;;;;;;10.70;5.10;;;;;8.30;101323.00;;;;10315950;28;23178;-76
2023/11/18 10:10:35;;;;;;;8.60;4.70;;;;;8.40;101307.00;;;;10307303;28;20224;-76
2023/11/18 10:15:39;;;;;;;7.67;4.53;;;;;8.40;101298.00;;;;10330977;28;20287;-76
2023/11/18 10:20:51;;;;;;;9.93;4.40;;;;;8.50;101282.00;;;;10316421;28;20229;-75
2023/11/18 10:25:54;;;;;;;11.90;5.30;;;;;8.50;101275.00;;;;10314010;28;20220;-74
2023/11/18 10:30:57;;;;;;;10.80;4.50;;;;;8.60;101265.00;;;;10309490;28;20770;-76
2023/11/18 10:36:03;;;;;;;9.77;4.63;;;;;8.60;101258.00;;;;10317736;28;20230;-75
2023/11/18 10:41:05;;;;;;;8.00;4.20;;;;;8.50;101253.00;;;;10318930;28;20254;-74
2023/11/18 10:46:14;;;;;;;7.60;4.60;;;;;8.50;101247.00;;;;10306999;28;20235;-73
2023/11/18 10:51:20;;;;;;;10.47;5.20;;;;;8.50;101238.00;;;;10331983;28;20265;-73
2023/11/18 10:56:28;;;;;;;7.33;4.70;;;;;8.40;101231.00;;;;10310939;28;20216;-73
2023/11/18 11:01:38;;;;;;;9.83;4.77;;;;;8.40;101225.00;;;;10318214;28;20760;-73
2023/11/18 11:06:52;;;;;;;7.83;4.27;;;;;8.40;101214.00;;;;10309102;28;20783;-73
2023/11/18 11:11:59;;;;;;;12.70;4.37;;;;;8.40;101208.00;;;;10320650;28;20223;-73
2023/11/18 11:17:11;;;;;;;8.93;3.70;;;;;8.30;101223.00;;;;10329146;28;20219;-73
2023/11/18 11:22:20;;;;;;;9.23;3.97;;;;;8.40;101195.00;;;;10318182;28;20239;-73
2023/11/18 11:27:35;;;;;;;3.97;3.43;;;;;8.40;101198.00;;;;10309062;28;21048;-72
2023/11/18 11:32:51;;;;;;;5.60;3.50;;;;;8.40;101174.00;;;;10309245;28;20251;-72
2023/11/18 11:37:53;;;;;;;5.60;3.30;;;;;8.40;101155.00;;;;10309211;28;20663;-73
2023/11/18 11:42:57;;;;;;;7.80;2.87;;;;;8.60;101124.00;;;;10295865;28;20228;-73
2023/11/18 11:48:13;;;;;;;8.47;2.40;;;;;8.70;101108.00;;;;10305636;28;20753;-73
2023/11/18 11:53:19;;;;;;;4.07;1.97;;;;;8.80;101077.00;;;;10314874;28;20233;-72
2023/11/18 11:58:31;;;;;;;3.50;2.03;;;;;8.90;101042.00;;;;10326104;28;20208;-74
2023/11/18 12:03:36;;;;;;;2.47;1.40;;;;;9.10;101001.00;;;;10310925;28;20277;-75
2023/11/18 12:08:38;;;;;;;3.20;1.67;;;;;9.10;101012.00;;;;10323128;28;20315;-74
2023/11/18 12:13:39;;;;;;;3.50;1.50;;;;;8.90;101031.00;;;;10328760;28;20758;-74
2023/11/18 12:18:43;;;;;;;3.53;1.70;;;;;8.80;101025.00;;;;10314930;28;20230;-75
2023/11/18 12:24:15;;;;;;;2.37;1.27;;;;;8.70;101020.00;;;;10320030;28;20351;-74
2023/11/18 12:29:34;;;;;;;1.80;1.43;;;;;8.60;101020.00;;;;10297163;28;20318;-74
2023/11/18 12:34:56;;;;;;;2.13;1.20;;;;;8.70;100999.00;;;;10304865;28;20305;-74
2023/11/18 12:40:17;;;;;;;1.90;1.20;;;;;8.70;100965.00;;;;10296266;28;20302;-74
2023/11/18 12:45:43;;;;;;;2.37;1.03;;;;;8.70;100939.00;;;;10303643;28;20309;-73
2023/11/18 12:50:45;;;;;;;4.30;1.43;;;;;8.70;100930.00;;;;10316889;28;20223;-74
2023/11/18 12:55:48;;;;;;;1.97;1.30;;;;;8.70;100943.00;;;;10327129;28;21033;-74
2023/11/18 13:00:49;;;;;;;1.10;1.00;;;;;8.70;100940.00;;;;10316517;28;20224;-73
2023/11/18 13:05:51;;;;;;;1.30;1.00;;;;;8.70;100925.00;;;;10311279;28;20282;-72
2023/11/18 13:10:53;;;;;;;0.97;0.73;;;;;8.70;100904.00;;;;10311866;28;20235;-71
2023/11/18 13:15:54;;;;;;;0.87;0.80;;;;;8.70;100894.00;;;;10312561;28;20220;-71
2023/11/18 13:21:00;;;;;;;0.90;0.80;;;;;8.80;100887.00;;;;10312164;28;20236;-72
2023/11/18 13:26:03;;;;;;;1.20;0.70;;;;;8.80;100876.00;;;;10314828;28;20306;-73
2023/11/18 13:31:09;;;;;;;0.80;0.80;;;;;8.90;100855.00;;;;10313392;28;20228;-72
2023/11/18 13:36:11;;;;;;;1.17;0.70;;;;;9.00;100837.00;;;;10309707;28;20886;-72
2023/11/18 13:41:13;;;;;;;1.57;0.60;;;;;9.00;100845.00;;;;10309537;28;20295;-72
2023/11/18 13:46:14;;;;;;;1.10;0.47;;;;;9.00;100812.00;;;;10314930;28;20228;-72
2023/11/18 13:51:17;;;;;;;1.30;0.50;;;;;9.00;100803.00;;;;10312277;28;20236;-73
2023/11/18 13:56:19;;;;;;;0.70;0.70;;;;;9.00;100795.00;;;;10308046;28;20235;-72
2023/11/18 14:01:21;;;;;;;0.63;0.60;;;;;9.10;100805.00;;;;10329732;28;20242;-72
2023/11/18 14:06:22;;;;;;;1.33;0.70;;;;;9.10;100801.00;;;;10308724;28;20223;-72
2023/11/18 14:11:24;;;;;;;0.73;0.73;;;;;9.00;100797.00;;;;10312791;28;20228;-72
2023/11/18 14:16:26;;;;;;;0.60;0.60;;;;;9.10;100781.00;;;;10311107;28;20230;-71
2023/11/18 14:21:27;;;;;;;0.93;0.93;;;;;9.10;100769.00;;;;10307551;28;20219;-72
2023/11/18 14:26:29;;;;;;;0.77;0.70;;;;;9.10;100771.00;;;;10310798;28;20331;-72
2023/11/18 14:31:30;;;;;;;2.20;0.57;;;;;9.10;100755.00;;;;10323833;28;20239;-72
2023/11/18 14:36:32;;;;;;;0.70;0.67;;;;;9.20;100763.00;;;;10288048;28;20212;-72
2023/11/18 14:41:33;;;;;;;1.40;0.80;;;;;9.20;100744.00;;;;10307203;28;20283;-71
2023/11/18 14:46:38;;;;;;;1.80;0.70;;;;;9.30;100747.00;;;;10309934;28;20815;-72
2023/11/18 14:51:43;;;;;;;0.80;0.80;;;;;9.30;100750.00;;;;10300968;28;20255;-72
2023/11/18 14:56:47;;;;;;;0.80;0.80;;;;;9.30;100740.00;;;;10291400;28;20228;-72
2023/11/18 15:01:48;;;;;;;0.70;0.70;;;;;9.40;100733.00;;;;10313011;28;20240;-73
2023/11/18 15:06:53;;;;;;;0.80;0.80;;;;;9.40;100723.00;;;;10316476;28;20681;-72
2023/11/18 15:11:56;;;;;;;1.83;0.60;;;;;9.50;100717.00;;;;10328672;28;20324;-73
2023/11/18 15:16:57;;;;;;;1.20;0.83;;;;;9.50;100702.00;;;;10303144;28;20230;-72
2023/11/18 15:21:58;;;;;;;1.17;0.60;;;;;9.60;100699.00;;;;10300027;28;20232;-73
2023/11/18 15:27:01;;;;;;;0.80;0.77;;;;;9.60;100703.00;;;;10312619;28;20220;-72
2023/11/18 15:32:02;;;;;;;0.73;0.73;;;;;9.60;100703.00;;;;10302884;28;20224;-73
2023/11/18 15:37:03;;;;;;;1.17;0.90;;;;;9.60;100687.00;;;;10305277;28;20220;-73
2023/11/18 15:42:05;;;;;;;1.03;0.80;;;;;9.60;100702.00;;;;10308498;28;20306;-73
2023/11/18 15:47:06;;;;;;;1.23;1.00;;;;;9.70;100689.00;;;;10315257;28;20216;-73
2023/11/18 15:52:10;;;;;;;1.27;1.00;;;;;9.70;100684.00;;;;10318939;28;20302;-73
2023/11/18 15:57:11;;;;;;;1.13;1.03;;;;;9.80;100687.00;;;;10323426;28;20234;-73
2023/11/18 16:02:14;;;;;;;0.93;0.77;;;;;9.80;100659.00;;;;10306790;28;20223;-72
2023/11/18 16:07:15;;;;;;;1.67;0.87;;;;;9.90;100660.00;;;;10316449;28;20219;-73
2023/11/18 16:12:16;;;;;;;1.23;1.13;;;;;9.90;100678.00;;;;10308004;28;20226;-73
2023/11/18 16:17:18;;;;;;;0.90;0.90;;;;;9.90;100684.00;;;;10322279;28;20358;-73
2023/11/18 16:22:19;;;;;;;2.27;1.03;;;;;10.00;100658.00;;;;10313252;28;20256;-73
2023/11/18 16:27:21;;;;;;;1.10;1.00;;;;;10.00;100650.00;;;;10324102;28;20303;-73
2023/11/18 16:32:22;;;;;;;1.90;1.10;;;;;10.10;100664.00;;;;10311074;28;20216;-73
2023/11/18 16:37:23;;;;;;;1.37;1.20;;;;;10.10;100649.00;;;;10314471;28;20223;-72
2023/11/18 16:42:28;;;;;;;1.53;1.20;;;;;10.20;100655.00;;;;10306511;28;20223;-73
2023/11/18 16:47:29;;;;;;;1.40;1.30;;;;;10.20;100662.00;;;;10322232;28;20764;-73
2023/11/18 16:52:30;;;;;;;3.07;1.40;;;;;10.30;100659.00;;;;10303160;28;20298;-73
2023/11/18 16:57:35;;;;;;;2.37;2.17;;;;;10.30;100652.00;;;;10310381;28;20251;-73
2023/11/18 17:02:36;;;;;;;3.53;1.90;;;;;10.40;100661.00;;;;10320566;28;20307;-73
2023/11/18 17:07:37;;;;;;;2.13;1.93;;;;;10.40;100641.00;;;;10309588;28;20359;-73
2023/11/18 17:12:42;;;;;;;3.70;2.43;;;;;10.40;100651.00;;;;10309944;28;20893;-73
2023/11/18 17:17:45;;;;;;;2.50;2.30;;;;;10.50;100644.00;;;;10315262;28;20314;-73
2023/11/18 17:22:46;;;;;;;4.43;3.03;;;;;10.60;100621.00;;;;10312598;28;20240;-73
2023/11/18 17:27:47;;;;;;;3.33;2.90;;;;;10.60;100626.00;;;;10319029;28;20236;-73
2023/11/18 17:32:52;;;;;;;5.93;3.70;;;;;10.70;100647.00;;;;10306908;28;20314;-73
2023/11/18 17:37:55;;;;;;;4.03;3.40;;;;;10.70;100643.00;;;;10305068;28;20216;-73
2023/11/18 17:42:56;;;;;;;3.90;3.17;;;;;10.80;100630.00;;;;10314772;28;20240;-73
2023/11/18 17:47:57;;;;;;;5.43;4.57;;;;;10.90;100639.00;;;;10312217;28;20230;-73
2023/11/18 17:53:02;;;;;;;5.33;4.30;;;;;10.90;100619.00;;;;10315615;28;20235;-73
2023/11/18 17:58:03;;;;;;;4.57;4.03;;;;;11.00;100625.00;;;;10307311;28;20224;-72
2023/11/18 18:03:06;;;;;;;6.30;4.60;;;;;11.10;100605.00;;;;10313730;28;20756;-73
2023/11/18 18:08:11;;;;;;;5.00;4.37;;;;;11.10;100606.00;;;;10313627;28;20669;-72
2023/11/18 18:13:12;;;;;;;5.73;4.90;;;;;11.20;100610.00;;;;10315746;28;20318;-73
2023/11/18 18:18:13;;;;;;;7.47;6.40;;;;;11.20;100627.00;;;;10315541;28;20351;-73
2023/11/18 18:23:15;;;;;;;6.87;5.73;;;;;11.30;100611.00;;;;10317034;28;20227;-73
2023/11/18 18:28:16;;;;;;;5.80;4.93;;;;;11.40;100631.00;;;;10307010;28;20224;-73
2023/11/18 18:33:18;;;;;;;11.20;8.60;;;;;11.40;100645.00;;;;10318806;28;20215;-73
2023/11/18 18:38:19;;;;;;;8.60;6.70;;;;;11.50;100652.00;;;;10312394;28;20266;-73
2023/11/18 18:43:21;;;;;;;5.73;5.10;;;;;11.50;100635.00;;;;10310258;28;20220;-73
2023/11/18 18:48:22;;;;;;;5.40;4.90;;;;;11.60;100651.00;;;;10317700;28;20219;-73
2023/11/18 18:53:23;;;;;;;6.97;6.23;;;;;11.70;100652.00;;;;10306472;28;20223;-73
2023/11/18 18:58:24;;;;;;;6.15;5.55;;;;;11.70;100647.00;;;;10316079;28;20226;-75
2023/11/18 19:03:25;;;;;;;6.53;5.27;;;;;11.70;100639.00;;;;10313581;28;20224;-74
2023/11/18 19:08:26;;;;;;;6.53;5.68;;;;;11.80;100635.00;;;;10313031;28;20231;-75
2023/11/18 19:13:28;;;;;;;5.83;5.10;;;;;11.80;100618.00;;;;10317714;28;20725;-75
2023/11/18 19:18:29;;;;;;;7.97;6.63;;;;;11.90;100617.00;;;;10325632;28;20246;-75
2023/11/18 19:23:30;;;;;;;6.67;6.07;;;;;11.90;100630.00;;;;10341299;28;20219;-76
2023/11/18 19:28:31;;;;;;;7.07;6.00;;;;;12.00;100636.00;;;;10322518;28;20227;-75
2023/11/18 19:33:32;;;;;;;5.97;5.37;;;;;12.00;100629.00;;;;10314249;28;20629;-75
2023/11/18 19:38:35;;;;;;;7.97;6.10;;;;;12.00;100605.00;;;;10327162;28;20224;-75
2023/11/18 19:43:36;;;;;;;7.70;6.90;;;;;12.00;100599.00;;;;10297900;28;20232;-75
2023/11/18 19:48:38;;;;;;;7.10;6.43;;;;;12.00;100593.00;;;;10322574;28;20701;-75
2023/11/18 19:53:39;;;;;;;6.47;5.80;;;;;12.10;100593.00;;;;10315525;28;20267;-75
2023/11/18 19:58:40;;;;;;;9.30;6.68;;;;;12.10;100568.00;;;;10306683;28;20711;-75
2023/11/18 20:03:41;;;;;;;8.55;6.15;;;;;12.20;100558.00;;;;10314960;28;20283;-75
2023/11/18 20:08:42;;;;;;;8.32;6.35;;;;;12.20;100559.00;;;;10312049;28;20231;-75
2023/11/18 20:13:44;;;;;;;6.75;6.05;;;;;12.20;100569.00;;;;10312388;28;20243;-75
2023/11/18 20:18:45;;;;;;;10.20;6.60;;;;;12.30;100569.00;;;;10312739;28;20228;-75
2023/11/18 20:23:46;;;;;;;8.73;7.72;;;;;12.30;100544.00;;;;10315979;28;20596;-74
2023/11/18 20:28:47;;;;;;;8.02;7.22;;;;;12.30;100565.00;;;;10317578;28;20250;-75
2023/11/18 20:33:49;;;;;;;9.25;7.80;;;;;12.40;100552.00;;;;10301615;28;20231;-75
2023/11/18 20:38:50;;;;;;;11.27;7.15;;;;;12.40;100539.00;;;;10338119;28;20945;-76
2023/11/18 20:43:51;;;;;;;9.43;7.38;;;;;12.50;100542.00;;;;10316357;28;20231;-75
2023/11/18 20:48:53;;;;;;;8.00;6.97;;;;;12.50;100545.00;;;;10316368;28;20247;-76
2023/11/18 20:53:54;;;;;;;8.68;6.95;;;;;12.50;100542.00;;;;10325121;28;20219;-76
2023/11/18 20:58:57;;;;;;;14.15;6.32;;;;;12.60;100548.00;;;;10318816;28;20822;-76
2023/11/18 21:03:59;;;;;;;7.53;6.00;;;;;12.60;100547.00;;;;10295316;28;20227;-76
2023/11/18 21:09:01;;;;;;;6.53;5.90;;;;;12.70;100556.00;;;;10302713;28;20223;-76
2023/11/18 21:14:03;;;;;;;6.00;5.28;;;;;12.70;100568.00;;;;10309790;28;20228;-76
2023/11/18 21:19:06;;;;;;;9.95;5.13;;;;;12.70;100553.00;;;;10323711;28;20227;-75
2023/11/18 21:24:07;;;;;;;7.65;4.97;;;;;12.70;100556.00;;;;10330684;28;20231;-76
2023/11/18 21:29:09;;;;;;;6.05;4.32;;;;;12.80;100550.00;;;;10315782;28;20615;-76
2023/11/18 21:34:11;;;;;;;4.65;4.20;;;;;12.80;100558.00;;;;10310974;28;21020;-76
2023/11/18 21:39:13;;;;;;;5.00;4.43;;;;;12.90;100559.00;;;;10321648;28;20308;-76
2023/11/18 21:44:14;;;;;;;5.68;4.45;;;;;12.90;100551.00;;;;10314203;28;20227;-75
2023/11/18 21:49:15;;;;;;;8.07;4.53;;;;;12.90;100548.00;;;;10316200;28;20232;-76
2023/11/18 21:54:17;;;;;;;8.18;4.85;;;;;12.80;100555.00;;;;10327942;28;20227;-76
2023/11/18 21:59:18;;;;;;;10.25;5.57;;;;;12.90;100561.00;;;;10309367;28;22379;-76
2023/11/18 22:04:20;;;;;;;5.90;5.30;;;;;12.80;100556.00;;;;10318385;28;20219;-76
2023/11/18 22:09:23;;;;;;;7.05;5.45;;;;;12.80;100544.00;;;;10306385;28;20240;-76
2023/11/18 22:14:27;;;;;;;6.95;5.68;;;;;12.80;100552.00;;;;10312986;28;20232;-76
2023/11/18 22:19:28;;;;;;;5.88;5.38;;;;;12.80;100551.00;;;;10319310;28;20864;-76
2023/11/18 22:24:29;;;;;;;7.47;5.55;;;;;12.80;100534.00;;;;10315604;28;20215;-76
2023/11/18 22:29:30;;;;;;;7.55;6.30;;;;;12.80;100532.00;;;;10314469;28;20677;-76
2023/11/18 22:34:32;;;;;;;6.75;6.13;;;;;12.80;100522.00;;;;10315126;28;20224;-73
2023/11/18 22:39:36;;;;;;;7.43;5.80;;;;;12.80;100507.00;;;;10316627;28;20224;-73
2023/11/18 22:44:37;;;;;;;7.10;5.03;;;;;12.80;100494.00;;;;10310351;28;20287;-73
2023/11/18 22:49:40;;;;;;;5.50;3.88;;;;;12.80;100482.00;;;;10326793;28;20701;-73
2023/11/18 22:54:44;;;;;;;6.65;3.60;;;;;12.80;100482.00;;;;10315160;28;20591;-73
2023/11/18 22:59:46;;;;;;;3.15;2.80;;;;;12.80;100513.00;;;;10319434;28;20226;-73
2023/11/18 23:04:47;;;;;;;5.05;3.05;;;;;12.90;100521.00;;;;10325818;28;20234;-74
2023/11/18 23:09:48;;;;;;;6.88;3.35;;;;;12.90;100516.00;;;;10322239;28;20239;-74
2023/11/18 23:14:52;;;;;;;5.45;3.40;;;;;12.90;100536.00;;;;10324932;28;20304;-74
2023/11/18 23:19:53;;;;;;;4.47;3.08;;;;;12.90;100539.00;;;;10334467;28;20318;-73
2023/11/18 23:24:54;;;;;;;4.03;2.90;;;;;13.00;100531.00;;;;10312867;28;20251;-73
2023/11/18 23:29:56;;;;;;;9.55;3.42;;;;;12.90;100529.00;;;;10322493;28;20281;-74
2023/11/18 23:34:58;;;;;;;5.07;3.15;;;;;13.00;100533.00;;;;10317670;28;20253;-73
2023/11/18 23:39:59;;;;;;;8.10;2.92;;;;;12.90;100520.00;;;;10317105;28;20252;-73
2023/11/18 23:45:04;;;;;;;7.47;2.83;;;;;12.90;100525.00;;;;10320420;28;20227;-74
2023/11/18 23:50:11;;;;;;;6.45;3.00;;;;;12.90;100519.00;;;;10319085;28;20311;-74
2023/11/18 23:55:14;;;;;;;5.70;3.30;;;;;12.90;100514.00;;;;10315559;28;20232;-74
